sensor_id;sensor_type;location;lat;lon;timestamp;temperature;humidity
75296;DHT22;64623;44.738;37.804;2023-05-01T00:01:01;21.73;98.05
75296;DHT22;64623;44.738;37.804;2023-05-01T00:02:04;21.74;98.29
75296;DHT22;64623;44.738;37.804;2023-05-01T00:03:07;21.73;98.47
75296;DHT22;64623;44.738;37.804;2023-05-01T00:04:10;21.73;98.30
75296;DHT22;64623;44.738;37.804;2023-05-01T00:05:13;21.73;97.81
75296;DHT22;64623;44.738;37.804;2023-05-01T00:06:16;21.73;97.84
75296;DHT22;64623;44.738;37.804;2023-05-01T00:07:20;21.73;97.97
75296;DHT22;64623;44.738;37.804;2023-05-01T00:08:23;21.73;97.69
75296;DHT22;64623;44.738;37.804;2023-05-01T00:09:26;21.73;98.39
75296;DHT22;64623;44.738;37.804;2023-05-01T00:10:29;21.73;98.13
75296;DHT22;64623;44.738;37.804;2023-05-01T00:11:34;21.72;97.81
75296;DHT22;64623;44.738;37.804;2023-05-01T00:12:39;21.73;98.39
75296;DHT22;64623;44.738;37.804;2023-05-01T00:13:41;21.72;97.91
75296;DHT22;64623;44.738;37.804;2023-05-01T00:14:44;21.73;97.49
75296;DHT22;64623;44.738;37.804;2023-05-01T00:15:47;21.72;98.19
75296;DHT22;64623;44.738;37.804;2023-05-01T00:16:50;21.72;98.11
75296;DHT22;64623;44.738;37.804;2023-05-01T00:17:53;21.72;97.64
75296;DHT22;64623;44.738;37.804;2023-05-01T00:18:56;21.70;97.65
75296;DHT22;64623;44.738;37.804;2023-05-01T00:19:59;21.72;97.57
75296;DHT22;64623;44.738;37.804;2023-05-01T00:21:03;21.72;97.74
75296;DHT22;64623;44.738;37.804;2023-05-01T00:22:08;21.72;98.10
75296;DHT22;64623;44.738;37.804;2023-05-01T00:23:11;21.72;98.08
75296;DHT22;64623;44.738;37.804;2023-05-01T00:24:14;21.72;97.54
75296;DHT22;64623;44.738;37.804;2023-05-01T00:25:18;21.69;97.68
75296;DHT22;64623;44.738;37.804;2023-05-01T00:26:21;21.70;98.05
75296;DHT22;64623;44.738;37.804;2023-05-01T00:27:24;21.69;98.11
75296;DHT22;64623;44.738;37.804;2023-05-01T00:28:27;21.70;97.64
75296;DHT22;64623;44.738;37.804;2023-05-01T00:29:30;21.70;97.65
75296;DHT22;64623;44.738;37.804;2023-05-01T00:30:34;21.73;98.05
75296;DHT22;64623;44.738;37.804;2023-05-01T00:31:37;21.70;97.86
75296;DHT22;64623;44.738;37.804;2023-05-01T00:32:40;21.68;97.65
75296;DHT22;64623;44.738;37.804;2023-05-01T00:33:43;21.70;97.92
75296;DHT22;64623;44.738;37.804;2023-05-01T00:34:46;21.69;97.55
75296;DHT22;64623;44.738;37.804;2023-05-01T00:35:50;21.70;97.29
75296;DHT22;64623;44.738;37.804;2023-05-01T00:36:54;21.70;97.37
75296;DHT22;64623;44.738;37.804;2023-05-01T00:37:57;21.69;97.60
75296;DHT22;64623;44.738;37.804;2023-05-01T00:39:00;21.70;97.48
75296;DHT22;64623;44.738;37.804;2023-05-01T00:40:04;21.70;97.87
75296;DHT22;64623;44.738;37.804;2023-05-01T00:41:07;21.69;97.60
75296;DHT22;64623;44.738;37.804;2023-05-01T00:42:10;21.69;98.09
75296;DHT22;64623;44.738;37.804;2023-05-01T00:43:13;21.69;97.31
75296;DHT22;64623;44.738;37.804;2023-05-01T00:44:16;21.67;97.45
75296;DHT22;64623;44.738;37.804;2023-05-01T00:45:19;21.69;97.70
75296;DHT22;64623;44.738;37.804;2023-05-01T00:46:23;21.69;97.58
75296;DHT22;64623;44.738;37.804;2023-05-01T00:47:27;21.69;97.59
75296;DHT22;64623;44.738;37.804;2023-05-01T00:48:30;21.68;97.54
75296;DHT22;64623;44.738;37.804;2023-05-01T00:49:33;21.67;97.39
75296;DHT22;64623;44.738;37.804;2023-05-01T00:50:36;21.67;97.39
75296;DHT22;64623;44.738;37.804;2023-05-01T00:51:40;21.68;97.41
75296;DHT22;64623;44.738;37.804;2023-05-01T00:52:43;21.68;97.42
75296;DHT22;64623;44.738;37.804;2023-05-01T00:53:47;21.68;97.62
75296;DHT22;64623;44.738;37.804;2023-05-01T00:54:50;21.69;97.50
75296;DHT22;64623;44.738;37.804;2023-05-01T00:55:54;21.67;97.53
75296;DHT22;64623;44.738;37.804;2023-05-01T00:56:59;21.68;98.11
75296;DHT22;64623;44.738;37.804;2023-05-01T00:58:02;21.69;97.47
75296;DHT22;64623;44.738;37.804;2023-05-01T00:59:06;21.66;98.02
75296;DHT22;64623;44.738;37.804;2023-05-01T01:00:09;21.67;97.29
75296;DHT22;64623;44.738;37.804;2023-05-01T01:01:14;21.68;97.66
75296;DHT22;64623;44.738;37.804;2023-05-01T01:02:18;21.67;97.62
75296;DHT22;64623;44.738;37.804;2023-05-01T01:03:21;21.67;97.30
75296;DHT22;64623;44.738;37.804;2023-05-01T01:04:24;21.67;97.35
75296;DHT22;64623;44.738;37.804;2023-05-01T01:05:28;21.66;97.51
75296;DHT22;64623;44.738;37.804;2023-05-01T01:06:55;21.67;97.47
75296;DHT22;64623;44.738;37.804;2023-05-01T01:08:14;21.68;97.07
75296;DHT22;64623;44.738;37.804;2023-05-01T01:09:42;21.67;97.33
75296;DHT22;64623;44.738;37.804;2023-05-01T01:11:08;21.66;97.32
75296;DHT22;64623;44.738;37.804;2023-05-01T01:12:37;21.66;97.39
75296;DHT22;64623;44.738;37.804;2023-05-01T01:15:26;21.65;97.30
75296;DHT22;64623;44.738;37.804;2023-05-01T01:16:31;21.65;97.32
75296;DHT22;64623;44.738;37.804;2023-05-01T01:18:01;21.64;97.31
75296;DHT22;64623;44.738;37.804;2023-05-01T01:20:36;21.64;97.31
75296;DHT22;64623;44.738;37.804;2023-05-01T01:21:40;21.65;97.15
75296;DHT22;64623;44.738;37.804;2023-05-01T01:26:09;21.63;97.58
75296;DHT22;64623;44.738;37.804;2023-05-01T01:27:46;21.62;97.52
75296;DHT22;64623;44.738;37.804;2023-05-01T01:29:50;21.62;97.52
75296;DHT22;64623;44.738;37.804;2023-05-01T01:31:13;21.63;97.48
75296;DHT22;64623;44.738;37.804;2023-05-01T01:35:05;21.61;97.31
75296;DHT22;64623;44.738;37.804;2023-05-01T01:36:19;21.62;97.94
75296;DHT22;64623;44.738;37.804;2023-05-01T01:37:31;21.62;97.70
75296;DHT22;64623;44.738;37.804;2023-05-01T01:38:57;21.61;97.54
75296;DHT22;64623;44.738;37.804;2023-05-01T01:40:06;21.61;97.42
75296;DHT22;64623;44.738;37.804;2023-05-01T01:41:18;21.61;97.75
75296;DHT22;64623;44.738;37.804;2023-05-01T01:42:34;21.60;97.40
75296;DHT22;64623;44.738;37.804;2023-05-01T01:43:42;21.61;97.60
75296;DHT22;64623;44.738;37.804;2023-05-01T01:44:51;21.61;97.55
75296;DHT22;64623;44.738;37.804;2023-05-01T01:46:00;21.59;97.73
75296;DHT22;64623;44.738;37.804;2023-05-01T01:47:09;21.61;97.23
75296;DHT22;64623;44.738;37.804;2023-05-01T01:48:16;21.60;97.29
75296;DHT22;64623;44.738;37.804;2023-05-01T01:49:23;21.60;97.18
75296;DHT22;64623;44.738;37.804;2023-05-01T01:50:27;21.61;97.32
75296;DHT22;64623;44.738;37.804;2023-05-01T01:51:30;21.60;97.81
75296;DHT22;64623;44.738;37.804;2023-05-01T01:52:35;21.60;97.34
75296;DHT22;64623;44.738;37.804;2023-05-01T01:53:39;21.60;97.21
75296;DHT22;64623;44.738;37.804;2023-05-01T01:54:49;21.60;97.16
75296;DHT22;64623;44.738;37.804;2023-05-01T01:55:55;21.60;97.39
75296;DHT22;64623;44.738;37.804;2023-05-01T01:57:02;21.61;97.09
75296;DHT22;64623;44.738;37.804;2023-05-01T01:58:08;21.62;96.96
75296;DHT22;64623;44.738;37.804;2023-05-01T01:59:13;21.61;98.43
75296;DHT22;64623;44.738;37.804;2023-05-01T02:00:18;21.60;98.39
75296;DHT22;64623;44.738;37.804;2023-05-01T02:01:24;21.60;97.58
75296;DHT22;64623;44.738;37.804;2023-05-01T02:02:28;21.60;97.35
75296;DHT22;64623;44.738;37.804;2023-05-01T02:03:33;21.61;97.20
75296;DHT22;64623;44.738;37.804;2023-05-01T02:04:38;21.60;96.85
75296;DHT22;64623;44.738;37.804;2023-05-01T02:05:42;21.60;96.94
75296;DHT22;64623;44.738;37.804;2023-05-01T02:06:47;21.60;96.62
75296;DHT22;64623;44.738;37.804;2023-05-01T02:07:51;21.60;96.64
75296;DHT22;64623;44.738;37.804;2023-05-01T02:08:55;21.61;96.65
75296;DHT22;64623;44.738;37.804;2023-05-01T02:10:00;21.60;96.82
75296;DHT22;64623;44.738;37.804;2023-05-01T02:11:05;21.60;96.65
75296;DHT22;64623;44.738;37.804;2023-05-01T02:12:08;21.60;96.54
75296;DHT22;64623;44.738;37.804;2023-05-01T02:13:13;21.60;96.71
75296;DHT22;64623;44.738;37.804;2023-05-01T02:14:18;21.60;96.56
75296;DHT22;64623;44.738;37.804;2023-05-01T02:15:22;21.60;96.35
75296;DHT22;64623;44.738;37.804;2023-05-01T02:16:26;21.60;96.41
75296;DHT22;64623;44.738;37.804;2023-05-01T02:17:32;21.60;96.42
75296;DHT22;64623;44.738;37.804;2023-05-01T02:18:35;21.60;96.32
75296;DHT22;64623;44.738;37.804;2023-05-01T02:19:39;21.61;96.40
75296;DHT22;64623;44.738;37.804;2023-05-01T02:20:44;21.59;96.46
75296;DHT22;64623;44.738;37.804;2023-05-01T02:21:48;21.59;96.17
75296;DHT22;64623;44.738;37.804;2023-05-01T02:22:52;21.59;96.07
75296;DHT22;64623;44.738;37.804;2023-05-01T02:23:59;21.59;96.07
75296;DHT22;64623;44.738;37.804;2023-05-01T02:25:03;21.60;96.31
75296;DHT22;64623;44.738;37.804;2023-05-01T02:26:12;21.60;95.97
75296;DHT22;64623;44.738;37.804;2023-05-01T02:27:23;21.59;95.88
75296;DHT22;64623;44.738;37.804;2023-05-01T02:28:29;21.60;96.02
75296;DHT22;64623;44.738;37.804;2023-05-01T02:29:32;21.60;96.08
75296;DHT22;64623;44.738;37.804;2023-05-01T02:30:35;21.59;96.06
75296;DHT22;64623;44.738;37.804;2023-05-01T02:31:40;21.59;95.96
75296;DHT22;64623;44.738;37.804;2023-05-01T02:32:44;21.59;96.04
75296;DHT22;64623;44.738;37.804;2023-05-01T02:33:47;21.59;95.94
75296;DHT22;64623;44.738;37.804;2023-05-01T02:34:50;21.59;95.66
75296;DHT22;64623;44.738;37.804;2023-05-01T02:35:53;21.58;95.49
75296;DHT22;64623;44.738;37.804;2023-05-01T02:36:57;21.60;95.63
75296;DHT22;64623;44.738;37.804;2023-05-01T02:38:00;21.59;95.75
75296;DHT22;64623;44.738;37.804;2023-05-01T02:39:04;21.59;95.95
75296;DHT22;64623;44.738;37.804;2023-05-01T02:40:07;21.59;95.57
75296;DHT22;64623;44.738;37.804;2023-05-01T02:41:14;21.58;95.40
75296;DHT22;64623;44.738;37.804;2023-05-01T02:42:19;21.60;95.69
75296;DHT22;64623;44.738;37.804;2023-05-01T02:43:25;21.59;95.68
75296;DHT22;64623;44.738;37.804;2023-05-01T02:44:37;21.60;95.92
75296;DHT22;64623;44.738;37.804;2023-05-01T02:45:42;21.59;95.56
75296;DHT22;64623;44.738;37.804;2023-05-01T02:46:47;21.58;95.57
75296;DHT22;64623;44.738;37.804;2023-05-01T02:47:55;21.59;95.57
75296;DHT22;64623;44.738;37.804;2023-05-01T02:49:00;21.58;95.62
75296;DHT22;64623;44.738;37.804;2023-05-01T02:50:05;21.58;96.38
75296;DHT22;64623;44.738;37.804;2023-05-01T02:51:09;21.58;95.77
75296;DHT22;64623;44.738;37.804;2023-05-01T02:52:16;21.59;95.55
75296;DHT22;64623;44.738;37.804;2023-05-01T02:53:22;21.58;95.59
75296;DHT22;64623;44.738;37.804;2023-05-01T02:54:31;21.58;95.56
75296;DHT22;64623;44.738;37.804;2023-05-01T02:55:35;21.57;95.20
75296;DHT22;64623;44.738;37.804;2023-05-01T02:56:38;21.57;95.09
75296;DHT22;64623;44.738;37.804;2023-05-01T02:57:41;21.55;95.17
75296;DHT22;64623;44.738;37.804;2023-05-01T02:58:44;21.57;95.33
75296;DHT22;64623;44.738;37.804;2023-05-01T02:59:47;21.57;95.06
75296;DHT22;64623;44.738;37.804;2023-05-01T03:00:50;21.57;95.42
75296;DHT22;64623;44.738;37.804;2023-05-01T03:01:54;21.57;94.93
75296;DHT22;64623;44.738;37.804;2023-05-01T03:02:57;21.57;95.50
75296;DHT22;64623;44.738;37.804;2023-05-01T03:04:00;21.57;95.21
75296;DHT22;64623;44.738;37.804;2023-05-01T03:05:03;21.57;94.64
75296;DHT22;64623;44.738;37.804;2023-05-01T03:06:06;21.57;95.35
75296;DHT22;64623;44.738;37.804;2023-05-01T03:07:10;21.55;94.89
75296;DHT22;64623;44.738;37.804;2023-05-01T03:08:12;21.55;95.03
75296;DHT22;64623;44.738;37.804;2023-05-01T03:09:16;21.57;95.55
75296;DHT22;64623;44.738;37.804;2023-05-01T03:10:19;21.57;95.43
75296;DHT22;64623;44.738;37.804;2023-05-01T03:11:22;21.58;94.77
75296;DHT22;64623;44.738;37.804;2023-05-01T03:12:25;21.58;94.65
75296;DHT22;64623;44.738;37.804;2023-05-01T03:13:29;21.57;94.91
75296;DHT22;64623;44.738;37.804;2023-05-01T03:14:33;21.57;94.53
75296;DHT22;64623;44.738;37.804;2023-05-01T03:15:37;21.57;94.45
75296;DHT22;64623;44.738;37.804;2023-05-01T03:16:40;21.57;94.37
75296;DHT22;64623;44.738;37.804;2023-05-01T03:17:43;21.59;94.27
75296;DHT22;64623;44.738;37.804;2023-05-01T03:18:46;21.55;94.27
75296;DHT22;64623;44.738;37.804;2023-05-01T03:19:51;21.57;94.23
75296;DHT22;64623;44.738;37.804;2023-05-01T03:20:55;21.57;94.49
75296;DHT22;64623;44.738;37.804;2023-05-01T03:22:00;21.57;94.55
75296;DHT22;64623;44.738;37.804;2023-05-01T03:23:04;21.55;94.47
75296;DHT22;64623;44.738;37.804;2023-05-01T03:24:08;21.57;94.30
75296;DHT22;64623;44.738;37.804;2023-05-01T03:25:11;21.58;94.14
75296;DHT22;64623;44.738;37.804;2023-05-01T03:26:14;21.57;94.32
75296;DHT22;64623;44.738;37.804;2023-05-01T03:27:17;21.57;94.11
75296;DHT22;64623;44.738;37.804;2023-05-01T03:28:20;21.55;94.40
75296;DHT22;64623;44.738;37.804;2023-05-01T03:29:27;21.55;94.96
75296;DHT22;64623;44.738;37.804;2023-05-01T03:30:32;21.55;94.71
75296;DHT22;64623;44.738;37.804;2023-05-01T03:31:37;21.55;94.47
75296;DHT22;64623;44.738;37.804;2023-05-01T03:32:42;21.55;94.22
75296;DHT22;64623;44.738;37.804;2023-05-01T03:33:53;21.54;94.99
75296;DHT22;64623;44.738;37.804;2023-05-01T03:34:56;21.55;94.85
75296;DHT22;64623;44.738;37.804;2023-05-01T03:36:04;21.57;94.60
75296;DHT22;64623;44.738;37.804;2023-05-01T03:37:08;21.55;94.16
75296;DHT22;64623;44.738;37.804;2023-05-01T03:38:11;21.54;94.14
75296;DHT22;64623;44.738;37.804;2023-05-01T03:39:53;21.55;94.30
75296;DHT22;64623;44.738;37.804;2023-05-01T03:40:59;21.55;94.24
75296;DHT22;64623;44.738;37.804;2023-05-01T03:42:20;21.54;94.09
75296;DHT22;64623;44.738;37.804;2023-05-01T03:43:24;21.55;94.40
75296;DHT22;64623;44.738;37.804;2023-05-01T03:44:29;21.54;94.30
75296;DHT22;64623;44.738;37.804;2023-05-01T03:45:32;21.54;93.90
75296;DHT22;64623;44.738;37.804;2023-05-01T03:46:35;21.54;94.18
75296;DHT22;64623;44.738;37.804;2023-05-01T03:47:40;21.53;94.11
75296;DHT22;64623;44.738;37.804;2023-05-01T03:48:43;21.53;94.06
75296;DHT22;64623;44.738;37.804;2023-05-01T03:49:47;21.54;94.58
75296;DHT22;64623;44.738;37.804;2023-05-01T03:50:50;21.55;94.51
75296;DHT22;64623;44.738;37.804;2023-05-01T03:51:53;21.54;94.18
75296;DHT22;64623;44.738;37.804;2023-05-01T03:52:57;21.53;94.20
75296;DHT22;64623;44.738;37.804;2023-05-01T03:54:00;21.54;94.20
75296;DHT22;64623;44.738;37.804;2023-05-01T03:55:11;21.53;94.18
75296;DHT22;64623;44.738;37.804;2023-05-01T03:56:17;21.53;94.12
75296;DHT22;64623;44.738;37.804;2023-05-01T03:57:21;21.53;94.03
75296;DHT22;64623;44.738;37.804;2023-05-01T03:58:25;21.54;94.30
75296;DHT22;64623;44.738;37.804;2023-05-01T03:59:28;21.54;94.28
75296;DHT22;64623;44.738;37.804;2023-05-01T04:00:31;21.54;94.28
75296;DHT22;64623;44.738;37.804;2023-05-01T04:01:35;21.55;93.70
75296;DHT22;64623;44.738;37.804;2023-05-01T04:02:38;21.54;94.02
75296;DHT22;64623;44.738;37.804;2023-05-01T04:03:41;21.55;93.91
75296;DHT22;64623;44.738;37.804;2023-05-01T04:04:44;21.54;94.33
75296;DHT22;64623;44.738;37.804;2023-05-01T04:05:47;21.53;93.98
75296;DHT22;64623;44.738;37.804;2023-05-01T04:06:50;21.53;93.71
75296;DHT22;64623;44.738;37.804;2023-05-01T04:07:53;21.55;93.82
75296;DHT22;64623;44.738;37.804;2023-05-01T04:08:56;21.53;93.79
75296;DHT22;64623;44.738;37.804;2023-05-01T04:09:59;21.53;93.95
75296;DHT22;64623;44.738;37.804;2023-05-01T04:11:02;21.54;94.17
75296;DHT22;64623;44.738;37.804;2023-05-01T04:12:05;21.54;93.75
75296;DHT22;64623;44.738;37.804;2023-05-01T04:13:08;21.53;93.55
75296;DHT22;64623;44.738;37.804;2023-05-01T04:14:13;21.53;93.51
75296;DHT22;64623;44.738;37.804;2023-05-01T04:15:15;21.53;93.50
75296;DHT22;64623;44.738;37.804;2023-05-01T04:16:19;21.54;93.23
75296;DHT22;64623;44.738;37.804;2023-05-01T04:17:22;21.52;93.53
75296;DHT22;64623;44.738;37.804;2023-05-01T04:18:25;21.54;93.27
75296;DHT22;64623;44.738;37.804;2023-05-01T04:19:33;21.54;93.77
75296;DHT22;64623;44.738;37.804;2023-05-01T04:20:37;21.53;93.83
75296;DHT22;64623;44.738;37.804;2023-05-01T04:21:41;21.54;93.81
75296;DHT22;64623;44.738;37.804;2023-05-01T04:22:44;21.54;93.82
75296;DHT22;64623;44.738;37.804;2023-05-01T04:23:47;21.54;93.82
75296;DHT22;64623;44.738;37.804;2023-05-01T04:24:50;21.53;93.81
75296;DHT22;64623;44.738;37.804;2023-05-01T04:25:54;21.54;93.54
75296;DHT22;64623;44.738;37.804;2023-05-01T04:26:57;21.54;93.93
75296;DHT22;64623;44.738;37.804;2023-05-01T04:28:00;21.53;93.95
75296;DHT22;64623;44.738;37.804;2023-05-01T04:29:04;21.54;94.16
75296;DHT22;64623;44.738;37.804;2023-05-01T04:30:07;21.54;94.02
75296;DHT22;64623;44.738;37.804;2023-05-01T04:31:10;21.53;93.72
75296;DHT22;64623;44.738;37.804;2023-05-01T04:32:13;21.54;93.82
75296;DHT22;64623;44.738;37.804;2023-05-01T04:33:16;21.54;94.20
75296;DHT22;64623;44.738;37.804;2023-05-01T04:34:19;21.53;93.98
75296;DHT22;64623;44.738;37.804;2023-05-01T04:35:23;21.53;94.27
75296;DHT22;64623;44.738;37.804;2023-05-01T04:36:27;21.54;93.98
75296;DHT22;64623;44.738;37.804;2023-05-01T04:37:31;21.54;93.62
75296;DHT22;64623;44.738;37.804;2023-05-01T04:38:34;21.54;94.19
75296;DHT22;64623;44.738;37.804;2023-05-01T04:39:39;21.54;94.21
75296;DHT22;64623;44.738;37.804;2023-05-01T04:40:42;21.54;93.91
75296;DHT22;64623;44.738;37.804;2023-05-01T04:41:45;21.54;93.83
75296;DHT22;64623;44.738;37.804;2023-05-01T04:42:48;21.55;93.66
75296;DHT22;64623;44.738;37.804;2023-05-01T04:43:51;21.57;93.87
75296;DHT22;64623;44.738;37.804;2023-05-01T04:44:54;21.54;94.29
75296;DHT22;64623;44.738;37.804;2023-05-01T04:45:57;21.55;93.81
75296;DHT22;64623;44.738;37.804;2023-05-01T04:47:01;21.55;93.67
75296;DHT22;64623;44.738;37.804;2023-05-01T04:48:04;21.55;93.56
75296;DHT22;64623;44.738;37.804;2023-05-01T04:49:08;21.57;93.76
75296;DHT22;64623;44.738;37.804;2023-05-01T04:50:11;21.55;93.70
75296;DHT22;64623;44.738;37.804;2023-05-01T04:51:14;21.57;93.75
75296;DHT22;64623;44.738;37.804;2023-05-01T04:52:17;21.55;93.93
75296;DHT22;64623;44.738;37.804;2023-05-01T04:53:27;21.55;93.74
75296;DHT22;64623;44.738;37.804;2023-05-01T04:54:33;21.55;94.12
75296;DHT22;64623;44.738;37.804;2023-05-01T04:55:36;21.57;93.70
75296;DHT22;64623;44.738;37.804;2023-05-01T04:56:47;21.57;93.88
75296;DHT22;64623;44.738;37.804;2023-05-01T04:57:50;21.57;93.93
75296;DHT22;64623;44.738;37.804;2023-05-01T04:58:53;21.55;94.11
75296;DHT22;64623;44.738;37.804;2023-05-01T04:59:59;21.57;93.85
75296;DHT22;64623;44.738;37.804;2023-05-01T05:01:05;21.58;94.00
75296;DHT22;64623;44.738;37.804;2023-05-01T05:02:08;21.57;93.76
75296;DHT22;64623;44.738;37.804;2023-05-01T05:03:11;21.57;93.99
75296;DHT22;64623;44.738;37.804;2023-05-01T05:04:14;21.57;93.82
75296;DHT22;64623;44.738;37.804;2023-05-01T05:05:17;21.58;94.36
75296;DHT22;64623;44.738;37.804;2023-05-01T05:06:21;21.57;94.35
75296;DHT22;64623;44.738;37.804;2023-05-01T05:07:24;21.58;93.98
75296;DHT22;64623;44.738;37.804;2023-05-01T05:08:47;21.58;94.22
75296;DHT22;64623;44.738;37.804;2023-05-01T05:09:53;21.57;94.00
75296;DHT22;64623;44.738;37.804;2023-05-01T05:10:58;21.57;94.26
75296;DHT22;64623;44.738;37.804;2023-05-01T05:12:13;21.58;94.10
75296;DHT22;64623;44.738;37.804;2023-05-01T05:13:16;21.57;94.22
75296;DHT22;64623;44.738;37.804;2023-05-01T05:14:23;21.58;94.35
75296;DHT22;64623;44.738;37.804;2023-05-01T05:15:26;21.57;94.41
75296;DHT22;64623;44.738;37.804;2023-05-01T05:16:29;21.58;94.27
75296;DHT22;64623;44.738;37.804;2023-05-01T05:17:32;21.59;94.41
75296;DHT22;64623;44.738;37.804;2023-05-01T05:18:36;21.59;94.45
75296;DHT22;64623;44.738;37.804;2023-05-01T05:19:39;21.59;94.99
75296;DHT22;64623;44.738;37.804;2023-05-01T05:20:42;21.60;94.33
75296;DHT22;64623;44.738;37.804;2023-05-01T05:21:46;21.59;93.95
75296;DHT22;64623;44.738;37.804;2023-05-01T05:22:49;21.60;94.43
75296;DHT22;64623;44.738;37.804;2023-05-01T05:23:58;21.59;94.51
75296;DHT22;64623;44.738;37.804;2023-05-01T05:25:03;21.60;94.27
75296;DHT22;64623;44.738;37.804;2023-05-01T05:26:07;21.60;94.71
75296;DHT22;64623;44.738;37.804;2023-05-01T05:27:12;21.60;94.46
75296;DHT22;64623;44.738;37.804;2023-05-01T05:28:15;21.60;94.20
75296;DHT22;64623;44.738;37.804;2023-05-01T05:29:18;21.61;94.16
75296;DHT22;64623;44.738;37.804;2023-05-01T05:30:21;21.61;94.40
75296;DHT22;64623;44.738;37.804;2023-05-01T05:31:24;21.60;94.78
75296;DHT22;64623;44.738;37.804;2023-05-01T05:32:27;21.60;94.65
75296;DHT22;64623;44.738;37.804;2023-05-01T05:33:31;21.61;94.94
75296;DHT22;64623;44.738;37.804;2023-05-01T05:34:34;21.61;94.80
75296;DHT22;64623;44.738;37.804;2023-05-01T05:35:37;21.61;94.53
75296;DHT22;64623;44.738;37.804;2023-05-01T05:36:40;21.62;94.81
75296;DHT22;64623;44.738;37.804;2023-05-01T05:37:44;21.62;94.83
75296;DHT22;64623;44.738;37.804;2023-05-01T05:38:47;21.61;94.76
75296;DHT22;64623;44.738;37.804;2023-05-01T05:39:53;21.62;94.72
75296;DHT22;64623;44.738;37.804;2023-05-01T05:40:56;21.63;95.01
75296;DHT22;64623;44.738;37.804;2023-05-01T05:42:01;21.63;94.76
75296;DHT22;64623;44.738;37.804;2023-05-01T05:43:07;21.63;94.97
75296;DHT22;64623;44.738;37.804;2023-05-01T05:44:12;21.63;94.91
75296;DHT22;64623;44.738;37.804;2023-05-01T05:45:16;21.63;94.69
75296;DHT22;64623;44.738;37.804;2023-05-01T05:46:19;21.63;94.80
75296;DHT22;64623;44.738;37.804;2023-05-01T05:47:22;21.63;94.90
75296;DHT22;64623;44.738;37.804;2023-05-01T05:48:25;21.63;95.07
75296;DHT22;64623;44.738;37.804;2023-05-01T05:49:29;21.65;95.13
75296;DHT22;64623;44.738;37.804;2023-05-01T05:50:32;21.64;95.06
75296;DHT22;64623;44.738;37.804;2023-05-01T05:51:35;21.65;94.71
75296;DHT22;64623;44.738;37.804;2023-05-01T05:52:39;21.65;95.02
75296;DHT22;64623;44.738;37.804;2023-05-01T05:53:42;21.66;94.85
75296;DHT22;64623;44.738;37.804;2023-05-01T05:54:46;21.66;95.23
75296;DHT22;64623;44.738;37.804;2023-05-01T05:55:49;21.67;95.14
75296;DHT22;64623;44.738;37.804;2023-05-01T05:56:52;21.67;95.03
75296;DHT22;64623;44.738;37.804;2023-05-01T05:57:55;21.66;94.88
75296;DHT22;64623;44.738;37.804;2023-05-01T05:58:58;21.67;94.85
75296;DHT22;64623;44.738;37.804;2023-05-01T06:00:05;21.67;95.13
75296;DHT22;64623;44.738;37.804;2023-05-01T06:01:13;21.67;95.07
75296;DHT22;64623;44.738;37.804;2023-05-01T06:02:17;21.66;95.17
75296;DHT22;64623;44.738;37.804;2023-05-01T06:03:21;21.66;95.07
75296;DHT22;64623;44.738;37.804;2023-05-01T06:04:26;21.67;95.25
75296;DHT22;64623;44.738;37.804;2023-05-01T06:05:29;21.67;95.04
75296;DHT22;64623;44.738;37.804;2023-05-01T06:06:32;21.67;94.85
75296;DHT22;64623;44.738;37.804;2023-05-01T06:07:36;21.68;94.99
75296;DHT22;64623;44.738;37.804;2023-05-01T06:08:39;21.67;95.82
75296;DHT22;64623;44.738;37.804;2023-05-01T06:09:48;21.68;95.68
75296;DHT22;64623;44.738;37.804;2023-05-01T06:10:59;21.68;95.60
75296;DHT22;64623;44.738;37.804;2023-05-01T06:12:13;21.68;95.88
75296;DHT22;64623;44.738;37.804;2023-05-01T06:13:17;21.68;95.84
75296;DHT22;64623;44.738;37.804;2023-05-01T06:14:23;21.69;96.01
75296;DHT22;64623;44.738;37.804;2023-05-01T06:15:26;21.70;96.47
75296;DHT22;64623;44.738;37.804;2023-05-01T06:16:30;21.70;96.70
75296;DHT22;64623;44.738;37.804;2023-05-01T06:17:34;21.72;96.50
75296;DHT22;64623;44.738;37.804;2023-05-01T06:18:39;21.73;96.71
75296;DHT22;64623;44.738;37.804;2023-05-01T06:19:42;21.72;96.41
75296;DHT22;64623;44.738;37.804;2023-05-01T06:20:45;21.73;96.82
75296;DHT22;64623;44.738;37.804;2023-05-01T06:21:49;21.73;97.15
75296;DHT22;64623;44.738;37.804;2023-05-01T06:22:52;21.74;96.97
75296;DHT22;64623;44.738;37.804;2023-05-01T06:23:57;21.74;96.50
75296;DHT22;64623;44.738;37.804;2023-05-01T06:25:05;21.74;96.61
75296;DHT22;64623;44.738;37.804;2023-05-01T06:26:09;21.74;96.56
75296;DHT22;64623;44.738;37.804;2023-05-01T06:27:12;21.75;96.58
75296;DHT22;64623;44.738;37.804;2023-05-01T06:28:15;21.75;96.16
75296;DHT22;64623;44.738;37.804;2023-05-01T06:29:18;21.76;96.39
75296;DHT22;64623;44.738;37.804;2023-05-01T06:30:21;21.76;96.05
75296;DHT22;64623;44.738;37.804;2023-05-01T06:31:24;21.77;95.94
75296;DHT22;64623;44.738;37.804;2023-05-01T06:32:30;21.77;96.17
75296;DHT22;64623;44.738;37.804;2023-05-01T06:33:33;21.78;96.36
75296;DHT22;64623;44.738;37.804;2023-05-01T06:34:46;21.78;96.39
75296;DHT22;64623;44.738;37.804;2023-05-01T06:35:49;21.77;96.29
75296;DHT22;64623;44.738;37.804;2023-05-01T06:36:52;21.80;96.72
75296;DHT22;64623;44.738;37.804;2023-05-01T06:37:56;21.79;96.66
75296;DHT22;64623;44.738;37.804;2023-05-01T06:39:00;21.80;96.66
75296;DHT22;64623;44.738;37.804;2023-05-01T06:40:06;21.80;95.83
75296;DHT22;64623;44.738;37.804;2023-05-01T06:41:10;21.82;95.35
75296;DHT22;64623;44.738;37.804;2023-05-01T06:42:13;21.82;96.57
75296;DHT22;64623;44.738;37.804;2023-05-01T06:43:18;21.82;96.26
75296;DHT22;64623;44.738;37.804;2023-05-01T06:44:21;21.82;95.94
75296;DHT22;64623;44.738;37.804;2023-05-01T06:45:24;21.83;95.88
75296;DHT22;64623;44.738;37.804;2023-05-01T06:46:27;21.84;96.45
75296;DHT22;64623;44.738;37.804;2023-05-01T06:47:30;21.85;96.45
75296;DHT22;64623;44.738;37.804;2023-05-01T06:48:33;21.87;96.72
75296;DHT22;64623;44.738;37.804;2023-05-01T06:49:36;21.88;96.62
75296;DHT22;64623;44.738;37.804;2023-05-01T06:50:41;21.89;96.81
75296;DHT22;64623;44.738;37.804;2023-05-01T06:51:44;21.90;96.34
75296;DHT22;64623;44.738;37.804;2023-05-01T06:52:47;21.91;96.50
75296;DHT22;64623;44.738;37.804;2023-05-01T06:53:50;21.92;96.78
75296;DHT22;64623;44.738;37.804;2023-05-01T06:54:53;21.92;96.78